sensor_id;sensor_type;location;lat;lon;timestamp;P1;durP1;ratioP1;P2;durP2;ratioP2
75696;SDS011;64312;44.738;20.612;2023-04-03T00:01:28;12.02;;;7.15;;
75696;SDS011;64312;44.738;20.612;2023-04-03T00:03:54;14.48;;;8.13;;
75696;SDS011;64312;44.738;20.612;2023-04-03T00:06:21;15.23;;;8.57;;
75696;SDS011;64312;44.738;20.612;2023-04-03T00:08:47;15.45;;;9.57;;
75696;SDS011;64312;44.738;20.612;2023-04-03T00:11:13;13.75;;;8.07;;
75696;SDS011;64312;44.738;20.612;2023-04-03T00:13:40;10.63;;;7.03;;
75696;SDS011;64312;44.738;20.612;2023-04-03T00:16:07;13.90;;;7.55;;
75696;SDS011;64312;44.738;20.612;2023-04-03T00:18:34;12.07;;;7.15;;
75696;SDS011;64312;44.738;20.612;2023-04-03T00:21:01;10.25;;;6.75;;
75696;SDS011;64312;44.738;20.612;2023-04-03T00:23:26;10.25;;;6.25;;
75696;SDS011;64312;44.738;20.612;2023-04-03T00:25:52;12.15;;;6.10;;
75696;SDS011;64312;44.738;20.612;2023-04-03T00:28:17;8.07;;;5.60;;
75696;SDS011;64312;44.738;20.612;2023-04-03T00:30:44;9.40;;;6.05;;
75696;SDS011;64312;44.738;20.612;2023-04-03T00:33:13;11.35;;;5.82;;
75696;SDS011;64312;44.738;20.612;2023-04-03T00:35:39;10.35;;;6.47;;
75696;SDS011;64312;44.738;20.612;2023-04-03T00:38:05;9.98;;;5.90;;
75696;SDS011;64312;44.738;20.612;2023-04-03T00:40:36;10.95;;;6.40;;
75696;SDS011;64312;44.738;20.612;2023-04-03T00:43:08;9.38;;;5.88;;
75696;SDS011;64312;44.738;20.612;2023-04-03T00:45:38;7.90;;;5.50;;
75696;SDS011;64312;44.738;20.612;2023-04-03T00:48:07;7.00;;;5.13;;
75696;SDS011;64312;44.738;20.612;2023-04-03T00:50:38;7.40;;;5.90;;
75696;SDS011;64312;44.738;20.612;2023-04-03T00:53:06;6.45;;;4.75;;
75696;SDS011;64312;44.738;20.612;2023-04-03T00:55:35;7.50;;;5.25;;
75696;SDS011;64312;44.738;20.612;2023-04-03T00:58:03;7.50;;;4.63;;
75696;SDS011;64312;44.738;20.612;2023-04-03T01:00:30;8.15;;;4.50;;
75696;SDS011;64312;44.738;20.612;2023-04-03T01:02:55;6.80;;;4.63;;
75696;SDS011;64312;44.738;20.612;2023-04-03T01:05:21;7.93;;;4.88;;
75696;SDS011;64312;44.738;20.612;2023-04-03T01:07:48;6.65;;;4.15;;
75696;SDS011;64312;44.738;20.612;2023-04-03T01:10:16;7.35;;;3.88;;
75696;SDS011;64312;44.738;20.612;2023-04-03T01:12:45;5.63;;;4.03;;
75696;SDS011;64312;44.738;20.612;2023-04-03T01:15:20;7.05;;;4.55;;
75696;SDS011;64312;44.738;20.612;2023-04-03T01:20:36;7.13;;;4.50;;
75696;SDS011;64312;44.738;20.612;2023-04-03T01:28:04;7.32;;;5.30;;
75696;SDS011;64312;44.738;20.612;2023-04-03T01:30:33;6.97;;;4.97;;
75696;SDS011;64312;44.738;20.612;2023-04-03T01:33:02;6.95;;;4.65;;
75696;SDS011;64312;44.738;20.612;2023-04-03T01:35:28;6.70;;;4.80;;
75696;SDS011;64312;44.738;20.612;2023-04-03T01:37:53;5.68;;;4.53;;
75696;SDS011;64312;44.738;20.612;2023-04-03T01:40:19;8.38;;;5.25;;
75696;SDS011;64312;44.738;20.612;2023-04-03T01:42:45;7.82;;;5.18;;
75696;SDS011;64312;44.738;20.612;2023-04-03T01:45:11;10.13;;;5.07;;
75696;SDS011;64312;44.738;20.612;2023-04-03T01:47:37;8.05;;;4.82;;
75696;SDS011;64312;44.738;20.612;2023-04-03T01:50:03;7.82;;;4.85;;
75696;SDS011;64312;44.738;20.612;2023-04-03T01:52:32;8.35;;;5.38;;
75696;SDS011;64312;44.738;20.612;2023-04-03T01:54:57;9.57;;;6.57;;
75696;SDS011;64312;44.738;20.612;2023-04-03T01:57:23;13.77;;;9.43;;
75696;SDS011;64312;44.738;20.612;2023-04-03T01:59:49;15.20;;;9.38;;
75696;SDS011;64312;44.738;20.612;2023-04-03T02:02:14;12.75;;;8.65;;
75696;SDS011;64312;44.738;20.612;2023-04-03T02:04:40;15.45;;;9.68;;
75696;SDS011;64312;44.738;20.612;2023-04-03T02:07:06;16.38;;;9.52;;
75696;SDS011;64312;44.738;20.612;2023-04-03T02:09:32;11.90;;;7.70;;
75696;SDS011;64312;44.738;20.612;2023-04-03T02:11:58;12.27;;;7.22;;
75696;SDS011;64312;44.738;20.612;2023-04-03T02:14:24;11.35;;;6.60;;
75696;SDS011;64312;44.738;20.612;2023-04-03T02:16:49;10.98;;;6.90;;
75696;SDS011;64312;44.738;20.612;2023-04-03T02:19:15;11.90;;;7.00;;
75696;SDS011;64312;44.738;20.612;2023-04-03T02:21:41;14.60;;;8.32;;
75696;SDS011;64312;44.738;20.612;2023-04-03T02:24:07;12.43;;;7.40;;
75696;SDS011;64312;44.738;20.612;2023-04-03T02:26:33;13.93;;;6.88;;
75696;SDS011;64312;44.738;20.612;2023-04-03T02:28:58;12.82;;;7.80;;
75696;SDS011;64312;44.738;20.612;2023-04-03T02:31:24;13.52;;;7.30;;
75696;SDS011;64312;44.738;20.612;2023-04-03T02:33:50;13.75;;;7.43;;
75696;SDS011;64312;44.738;20.612;2023-04-03T02:36:17;12.10;;;6.97;;
75696;SDS011;64312;44.738;20.612;2023-04-03T02:38:48;13.68;;;6.78;;
75696;SDS011;64312;44.738;20.612;2023-04-03T02:41:14;11.38;;;6.82;;
75696;SDS011;64312;44.738;20.612;2023-04-03T02:43:40;13.38;;;7.80;;
75696;SDS011;64312;44.738;20.612;2023-04-03T02:46:06;14.05;;;6.70;;
75696;SDS011;64312;44.738;20.612;2023-04-03T02:48:32;10.90;;;6.40;;
75696;SDS011;64312;44.738;20.612;2023-04-03T02:50:58;13.98;;;7.20;;
75696;SDS011;64312;44.738;20.612;2023-04-03T02:53:23;13.55;;;6.13;;
75696;SDS011;64312;44.738;20.612;2023-04-03T02:55:50;12.32;;;6.80;;
75696;SDS011;64312;44.738;20.612;2023-04-03T02:58:15;10.70;;;6.20;;
75696;SDS011;64312;44.738;20.612;2023-04-03T03:00:41;11.55;;;6.28;;
75696;SDS011;64312;44.738;20.612;2023-04-03T03:03:07;11.52;;;6.57;;
75696;SDS011;64312;44.738;20.612;2023-04-03T03:05:33;11.00;;;6.45;;
75696;SDS011;64312;44.738;20.612;2023-04-03T03:07:58;10.85;;;6.25;;
75696;SDS011;64312;44.738;20.612;2023-04-03T03:10:25;12.98;;;6.45;;
75696;SDS011;64312;44.738;20.612;2023-04-03T03:12:50;12.57;;;6.88;;
75696;SDS011;64312;44.738;20.612;2023-04-03T03:15:16;12.75;;;7.55;;
75696;SDS011;64312;44.738;20.612;2023-04-03T03:17:42;12.65;;;7.35;;
75696;SDS011;64312;44.738;20.612;2023-04-03T03:20:08;13.02;;;7.55;;
75696;SDS011;64312;44.738;20.612;2023-04-03T03:22:35;11.55;;;6.72;;
75696;SDS011;64312;44.738;20.612;2023-04-03T03:25:01;14.45;;;7.38;;
75696;SDS011;64312;44.738;20.612;2023-04-03T03:27:28;12.55;;;7.10;;
75696;SDS011;64312;44.738;20.612;2023-04-03T03:29:53;12.65;;;7.65;;
75696;SDS011;64312;44.738;20.612;2023-04-03T03:32:20;14.23;;;7.72;;
75696;SDS011;64312;44.738;20.612;2023-04-03T03:34:45;12.77;;;7.43;;
75696;SDS011;64312;44.738;20.612;2023-04-03T03:37:11;16.20;;;8.07;;
75696;SDS011;64312;44.738;20.612;2023-04-03T03:39:37;13.75;;;8.32;;
75696;SDS011;64312;44.738;20.612;2023-04-03T03:42:03;13.25;;;7.72;;
75696;SDS011;64312;44.738;20.612;2023-04-03T03:44:29;17.70;;;7.80;;
75696;SDS011;64312;44.738;20.612;2023-04-03T03:46:55;15.45;;;8.27;;
75696;SDS011;64312;44.738;20.612;2023-04-03T03:49:21;16.05;;;8.15;;
75696;SDS011;64312;44.738;20.612;2023-04-03T03:51:47;13.80;;;8.20;;
75696;SDS011;64312;44.738;20.612;2023-04-03T03:54:13;17.05;;;8.20;;
75696;SDS011;64312;44.738;20.612;2023-04-03T03:56:39;12.70;;;7.20;;
75696;SDS011;64312;44.738;20.612;2023-04-03T03:59:05;15.93;;;7.95;;
75696;SDS011;64312;44.738;20.612;2023-04-03T04:01:31;18.10;;;9.20;;
75696;SDS011;64312;44.738;20.612;2023-04-03T04:03:58;16.23;;;8.45;;
75696;SDS011;64312;44.738;20.612;2023-04-03T04:06:28;15.07;;;8.43;;
75696;SDS011;64312;44.738;20.612;2023-04-03T04:08:57;18.25;;;9.80;;
75696;SDS011;64312;44.738;20.612;2023-04-03T04:11:22;19.05;;;8.70;;
75696;SDS011;64312;44.738;20.612;2023-04-03T04:13:50;15.73;;;8.75;;
75696;SDS011;64312;44.738;20.612;2023-04-03T04:16:17;22.85;;;9.30;;
75696;SDS011;64312;44.738;20.612;2023-04-03T04:18:43;18.92;;;9.70;;
75696;SDS011;64312;44.738;20.612;2023-04-03T04:21:09;16.63;;;9.07;;
75696;SDS011;64312;44.738;20.612;2023-04-03T04:23:37;19.55;;;10.52;;
75696;SDS011;64312;44.738;20.612;2023-04-03T04:26:02;20.02;;;10.77;;
75696;SDS011;64312;44.738;20.612;2023-04-03T04:28:32;17.23;;;9.65;;
75696;SDS011;64312;44.738;20.612;2023-04-03T04:30:59;22.10;;;11.65;;
75696;SDS011;64312;44.738;20.612;2023-04-03T04:33:26;22.25;;;11.90;;
75696;SDS011;64312;44.738;20.612;2023-04-03T04:35:52;21.83;;;10.68;;
75696;SDS011;64312;44.738;20.612;2023-04-03T04:38:19;23.45;;;10.90;;
75696;SDS011;64312;44.738;20.612;2023-04-03T04:40:46;19.85;;;11.88;;
75696;SDS011;64312;44.738;20.612;2023-04-03T04:43:13;20.75;;;9.75;;
75696;SDS011;64312;44.738;20.612;2023-04-03T04:45:41;23.15;;;11.10;;
75696;SDS011;64312;44.738;20.612;2023-04-03T04:48:08;21.05;;;11.73;;
75696;SDS011;64312;44.738;20.612;2023-04-03T04:50:34;19.33;;;10.57;;
75696;SDS011;64312;44.738;20.612;2023-04-03T04:53:01;19.55;;;10.20;;
75696;SDS011;64312;44.738;20.612;2023-04-03T04:55:26;23.70;;;13.90;;
75696;SDS011;64312;44.738;20.612;2023-04-03T04:57:52;20.70;;;11.50;;
75696;SDS011;64312;44.738;20.612;2023-04-03T05:00:19;30.27;;;13.63;;
75696;SDS011;64312;44.738;20.612;2023-04-03T05:02:45;28.58;;;13.10;;
75696;SDS011;64312;44.738;20.612;2023-04-03T05:05:11;28.45;;;13.23;;
75696;SDS011;64312;44.738;20.612;2023-04-03T05:07:37;27.70;;;14.18;;
75696;SDS011;64312;44.738;20.612;2023-04-03T05:10:03;27.95;;;12.38;;
75696;SDS011;64312;44.738;20.612;2023-04-03T05:12:31;23.27;;;12.40;;
75696;SDS011;64312;44.738;20.612;2023-04-03T05:14:59;19.42;;;11.32;;
75696;SDS011;64312;44.738;20.612;2023-04-03T05:17:28;19.30;;;11.18;;
75696;SDS011;64312;44.738;20.612;2023-04-03T05:19:55;25.85;;;11.75;;
75696;SDS011;64312;44.738;20.612;2023-04-03T05:22:22;25.55;;;11.77;;
75696;SDS011;64312;44.738;20.612;2023-04-03T05:24:49;20.98;;;11.73;;
75696;SDS011;64312;44.738;20.612;2023-04-03T05:27:16;19.20;;;10.27;;
75696;SDS011;64312;44.738;20.612;2023-04-03T05:29:46;20.35;;;10.43;;
75696;SDS011;64312;44.738;20.612;2023-04-03T05:32:18;19.83;;;10.57;;
75696;SDS011;64312;44.738;20.612;2023-04-03T05:34:48;20.63;;;12.07;;
75696;SDS011;64312;44.738;20.612;2023-04-03T05:37:15;22.63;;;10.90;;
75696;SDS011;64312;44.738;20.612;2023-04-03T05:39:41;18.70;;;10.60;;
75696;SDS011;64312;44.738;20.612;2023-04-03T05:42:08;17.85;;;9.88;;
75696;SDS011;64312;44.738;20.612;2023-04-03T05:44:34;20.13;;;10.43;;
75696;SDS011;64312;44.738;20.612;2023-04-03T05:47:01;17.08;;;9.93;;
75696;SDS011;64312;44.738;20.612;2023-04-03T05:49:26;18.55;;;8.65;;
75696;SDS011;64312;44.738;20.612;2023-04-03T05:51:52;14.45;;;8.50;;
75696;SDS011;64312;44.738;20.612;2023-04-03T05:54:24;16.52;;;9.10;;
75696;SDS011;64312;44.738;20.612;2023-04-03T05:56:57;15.68;;;8.30;;
75696;SDS011;64312;44.738;20.612;2023-04-03T05:59:24;16.00;;;7.95;;
75696;SDS011;64312;44.738;20.612;2023-04-03T06:01:52;17.27;;;9.45;;
75696;SDS011;64312;44.738;20.612;2023-04-03T06:04:18;18.20;;;9.75;;
75696;SDS011;64312;44.738;20.612;2023-04-03T06:06:47;17.67;;;9.43;;
75696;SDS011;64312;44.738;20.612;2023-04-03T06:09:18;18.10;;;9.65;;
75696;SDS011;64312;44.738;20.612;2023-04-03T06:11:48;17.42;;;9.07;;
75696;SDS011;64312;44.738;20.612;2023-04-03T06:14:15;17.55;;;9.52;;
75696;SDS011;64312;44.738;20.612;2023-04-03T06:16:41;38.90;;;16.35;;
75696;SDS011;64312;44.738;20.612;2023-04-03T06:19:08;21.52;;;11.07;;
75696;SDS011;64312;44.738;20.612;2023-04-03T06:21:38;23.52;;;11.52;;
75696;SDS011;64312;44.738;20.612;2023-04-03T06:24:05;25.88;;;12.88;;
75696;SDS011;64312;44.738;20.612;2023-04-03T06:26:32;23.00;;;11.93;;
75696;SDS011;64312;44.738;20.612;2023-04-03T06:28:58;26.98;;;13.52;;
75696;SDS011;64312;44.738;20.612;2023-04-03T06:31:23;26.98;;;13.80;;
75696;SDS011;64312;44.738;20.612;2023-04-03T06:33:49;29.23;;;15.48;;
75696;SDS011;64312;44.738;20.612;2023-04-03T06:36:15;27.20;;;14.80;;
75696;SDS011;64312;44.738;20.612;2023-04-03T06:38:45;23.08;;;14.10;;
75696;SDS011;64312;44.738;20.612;2023-04-03T06:41:10;22.30;;;11.35;;
75696;SDS011;64312;44.738;20.612;2023-04-03T06:43:36;19.50;;;11.50;;
75696;SDS011;64312;44.738;20.612;2023-04-03T06:46:02;23.15;;;11.82;;
75696;SDS011;64312;44.738;20.612;2023-04-03T06:48:28;17.42;;;9.88;;
75696;SDS011;64312;44.738;20.612;2023-04-03T06:50:54;16.27;;;9.65;;
75696;SDS011;64312;44.738;20.612;2023-04-03T06:53:21;16.45;;;9.13;;
75696;SDS011;64312;44.738;20.612;2023-04-03T06:55:46;17.33;;;9.10;;
75696;SDS011;64312;44.738;20.612;2023-04-03T06:58:12;13.77;;;8.18;;
75696;SDS011;64312;44.738;20.612;2023-04-03T07:00:38;11.55;;;6.93;;
75696;SDS011;64312;44.738;20.612;2023-04-03T07:03:05;14.60;;;7.10;;
75696;SDS011;64312;44.738;20.612;2023-04-03T07:05:30;16.40;;;8.38;;
75696;SDS011;64312;44.738;20.612;2023-04-03T07:07:57;12.90;;;7.45;;
75696;SDS011;64312;44.738;20.612;2023-04-03T07:10:23;16.73;;;8.90;;
75696;SDS011;64312;44.738;20.612;2023-04-03T07:12:49;12.93;;;7.30;;
75696;SDS011;64312;44.738;20.612;2023-04-03T07:15:14;9.55;;;6.53;;
75696;SDS011;64312;44.738;20.612;2023-04-03T07:17:40;7.55;;;4.85;;
75696;SDS011;64312;44.738;20.612;2023-04-03T07:20:06;8.88;;;4.43;;
75696;SDS011;64312;44.738;20.612;2023-04-03T07:22:33;8.30;;;4.15;;
75696;SDS011;64312;44.738;20.612;2023-04-03T07:24:59;5.82;;;3.85;;
75696;SDS011;64312;44.738;20.612;2023-04-03T07:27:25;6.90;;;4.20;;
75696;SDS011;64312;44.738;20.612;2023-04-03T07:29:51;7.22;;;4.00;;
75696;SDS011;64312;44.738;20.612;2023-04-03T07:32:17;9.88;;;5.28;;
75696;SDS011;64312;44.738;20.612;2023-04-03T07:34:42;9.40;;;4.75;;
75696;SDS011;64312;44.738;20.612;2023-04-03T07:37:09;5.57;;;3.80;;
75696;SDS011;64312;44.738;20.612;2023-04-03T07:39:35;6.15;;;3.55;;
75696;SDS011;64312;44.738;20.612;2023-04-03T07:42:02;8.68;;;4.00;;
75696;SDS011;64312;44.738;20.612;2023-04-03T07:44:27;4.65;;;3.55;;
75696;SDS011;64312;44.738;20.612;2023-04-03T07:46:54;7.97;;;4.38;;
75696;SDS011;64312;44.738;20.612;2023-04-03T07:49:22;15.18;;;6.38;;
75696;SDS011;64312;44.738;20.612;2023-04-03T07:51:51;9.90;;;5.50;;
75696;SDS011;64312;44.738;20.612;2023-04-03T07:54:18;8.48;;;4.13;;
75696;SDS011;64312;44.738;20.612;2023-04-03T07:56:44;9.65;;;4.43;;
75696;SDS011;64312;44.738;20.612;2023-04-03T07:59:10;8.77;;;3.83;;
75696;SDS011;64312;44.738;20.612;2023-04-03T08:01:37;8.40;;;4.70;;
75696;SDS011;64312;44.738;20.612;2023-04-03T08:04:02;7.05;;;4.35;;
75696;SDS011;64312;44.738;20.612;2023-04-03T08:06:30;7.10;;;3.42;;
75696;SDS011;64312;44.738;20.612;2023-04-03T08:08:58;5.53;;;3.03;;
75696;SDS011;64312;44.738;20.612;2023-04-03T08:11:24;9.02;;;3.67;;
75696;SDS011;64312;44.738;20.612;2023-04-03T08:13:52;7.82;;;3.13;;
75696;SDS011;64312;44.738;20.612;2023-04-03T08:16:18;5.40;;;3.45;;
75696;SDS011;64312;44.738;20.612;2023-04-03T08:18:47;6.28;;;3.90;;
75696;SDS011;64312;44.738;20.612;2023-04-03T08:21:13;7.35;;;3.45;;
75696;SDS011;64312;44.738;20.612;2023-04-03T08:23:40;6.47;;;3.08;;
75696;SDS011;64312;44.738;20.612;2023-04-03T08:26:14;9.00;;;3.78;;
75696;SDS011;64312;44.738;20.612;2023-04-03T08:28:42;7.55;;;3.92;;
75696;SDS011;64312;44.738;20.612;2023-04-03T08:31:09;8.48;;;4.80;;
75696;SDS011;64312;44.738;20.612;2023-04-03T08:33:37;8.00;;;4.00;;
75696;SDS011;64312;44.738;20.612;2023-04-03T08:36:04;8.88;;;4.93;;
75696;SDS011;64312;44.738;20.612;2023-04-03T08:38:31;7.60;;;3.88;;
75696;SDS011;64312;44.738;20.612;2023-04-03T08:49:10;7.25;;;4.00;;
75696;SDS011;64312;44.738;20.612;2023-04-03T08:51:53;10.25;;;4.20;;
75696;SDS011;64312;44.738;20.612;2023-04-03T08:54:28;6.93;;;3.78;;
75696;SDS011;64312;44.738;20.612;2023-04-03T08:56:58;7.10;;;2.90;;
75696;SDS011;64312;44.738;20.612;2023-04-03T08:59:28;6.10;;;3.47;;
75696;SDS011;64312;44.738;20.612;2023-04-03T09:01:58;4.65;;;3.10;;
75696;SDS011;64312;44.738;20.612;2023-04-03T09:04:27;7.95;;;3.47;;
75696;SDS011;64312;44.738;20.612;2023-04-03T09:07:04;9.25;;;2.90;;
75696;SDS011;64312;44.738;20.612;2023-04-03T09:09:40;4.82;;;3.53;;
75696;SDS011;64312;44.738;20.612;2023-04-03T09:15:15;9.50;;;4.35;;
75696;SDS011;64312;44.738;20.612;2023-04-03T09:22:51;7.30;;;3.72;;
75696;SDS011;64312;44.738;20.612;2023-04-03T09:25:23;8.38;;;4.63;;
75696;SDS011;64312;44.738;20.612;2023-04-03T09:28:01;5.38;;;2.90;;
75696;SDS011;64312;44.738;20.612;2023-04-03T09:30:27;5.93;;;3.13;;
75696;SDS011;64312;44.738;20.612;2023-04-03T09:32:54;4.30;;;2.92;;
75696;SDS011;64312;44.738;20.612;2023-04-03T09:35:28;6.00;;;3.60;;
75696;SDS011;64312;44.738;20.612;2023-04-03T09:38:01;4.40;;;3.13;;
75696;SDS011;64312;44.738;20.612;2023-04-03T09:40:28;5.88;;;3.30;;
75696;SDS011;64312;44.738;20.612;2023-04-03T09:45:41;6.15;;;3.13;;
75696;SDS011;64312;44.738;20.612;2023-04-03T09:51:00;6.32;;;2.90;;
75696;SDS011;64312;44.738;20.612;2023-04-03T09:58:44;6.30;;;3.38;;
75696;SDS011;64312;44.738;20.612;2023-04-03T10:06:46;5.05;;;3.20;;
75696;SDS011;64312;44.738;20.612;2023-04-03T10:09:20;6.70;;;3.90;;
75696;SDS011;64312;44.738;20.612;2023-04-03T10:12:08;5.43;;;2.95;;
75696;SDS011;64312;44.738;20.612;2023-04-03T10:14:34;8.40;;;3.50;;
75696;SDS011;64312;44.738;20.612;2023-04-03T10:17:18;5.85;;;3.72;;
75696;SDS011;64312;44.738;20.612;2023-04-03T10:19:58;5.65;;;3.35;;
75696;SDS011;64312;44.738;20.612;2023-04-03T10:28:03;4.35;;;2.90;;
75696;SDS011;64312;44.738;20.612;2023-04-03T10:33:18;7.53;;;4.50;;
75696;SDS011;64312;44.738;20.612;2023-04-03T10:46:47;5.57;;;3.47;;
75696;SDS011;64312;44.738;20.612;2023-04-03T10:52:20;5.13;;;3.17;;
75696;SDS011;64312;44.738;20.612;2023-04-03T10:57:49;4.28;;;2.65;;
75696;SDS011;64312;44.738;20.612;2023-04-03T11:00:16;5.20;;;3.30;;
75696;SDS011;64312;44.738;20.612;2023-04-03T11:02:48;5.20;;;3.58;;
75696;SDS011;64312;44.738;20.612;2023-04-03T11:07:50;4.97;;;3.50;;
75696;SDS011;64312;44.738;20.612;2023-04-03T11:10:24;5.43;;;3.15;;
75696;SDS011;64312;44.738;20.612;2023-04-03T11:13:11;4.43;;;2.80;;
75696;SDS011;64312;44.738;20.612;2023-04-03T11:15:43;8.40;;;4.63;;
75696;SDS011;64312;44.738;20.612;2023-04-03T11:18:12;5.57;;;3.10;;
75696;SDS011;64312;44.738;20.612;2023-04-03T11:21:07;6.78;;;3.72;;
75696;SDS011;64312;44.738;20.612;2023-04-03T11:23:41;5.93;;;3.40;;
75696;SDS011;64312;44.738;20.612;2023-04-03T11:26:08;8.98;;;5.22;;
75696;SDS011;64312;44.738;20.612;2023-04-03T11:28:37;5.35;;;3.30;;
75696;SDS011;64312;44.738;20.612;2023-04-03T11:36:42;7.03;;;3.47;;
75696;SDS011;64312;44.738;20.612;2023-04-03T11:39:20;6.30;;;3.53;;
75696;SDS011;64312;44.738;20.612;2023-04-03T11:41:51;7.28;;;4.47;;
75696;SDS011;64312;44.738;20.612;2023-04-03T11:44:36;6.93;;;3.90;;
75696;SDS011;64312;44.738;20.612;2023-04-03T11:47:05;7.15;;;3.90;;
75696;SDS011;64312;44.738;20.612;2023-04-03T11:58:34;5.97;;;3.80;;
75696;SDS011;64312;44.738;20.612;2023-04-03T12:05:54;5.78;;;3.75;;
75696;SDS011;64312;44.738;20.612;2023-04-03T12:08:45;6.57;;;3.75;;
75696;SDS011;64312;44.738;20.612;2023-04-03T12:11:29;6.43;;;3.80;;
75696;SDS011;64312;44.738;20.612;2023-04-03T12:31:56;7.47;;;4.13;;
75696;SDS011;64312;44.738;20.612;2023-04-03T12:34:26;5.05;;;3.45;;
75696;SDS011;64312;44.738;20.612;2023-04-03T12:39:58;7.03;;;3.55;;
75696;SDS011;64312;44.738;20.612;2023-04-03T12:45:22;5.97;;;3.63;;
75696;SDS011;64312;44.738;20.612;2023-04-03T12:47:49;4.47;;;3.03;;
75696;SDS011;64312;44.738;20.612;2023-04-03T12:50:18;6.18;;;3.30;;
75696;SDS011;64312;44.738;20.612;2023-04-03T12:52:54;5.88;;;3.75;;
75696;SDS011;64312;44.738;20.612;2023-04-03T12:55:24;5.50;;;3.55;;
75696;SDS011;64312;44.738;20.612;2023-04-03T12:57:50;7.38;;;4.25;;
75696;SDS011;64312;44.738;20.612;2023-04-03T13:00:20;8.70;;;4.57;;
75696;SDS011;64312;44.738;20.612;2023-04-03T13:02:48;5.50;;;2.97;;
75696;SDS011;64312;44.738;20.612;2023-04-03T13:05:15;4.38;;;2.92;;
75696;SDS011;64312;44.738;20.612;2023-04-03T13:07:43;8.05;;;4.15;;
75696;SDS011;64312;44.738;20.612;2023-04-03T13:10:17;7.60;;;4.57;;
75696;SDS011;64312;44.738;20.612;2023-04-03T13:12:48;6.65;;;3.53;;
75696;SDS011;64312;44.738;20.612;2023-04-03T13:15:17;6.95;;;3.72;;
75696;SDS011;64312;44.738;20.612;2023-04-03T13:17:45;5.00;;;3.38;;
75696;SDS011;64312;44.738;20.612;2023-04-03T13:20:32;6.88;;;3.58;;
75696;SDS011;64312;44.738;20.612;2023-04-03T13:23:02;8.27;;;4.35;;
75696;SDS011;64312;44.738;20.612;2023-04-03T13:25:34;6.90;;;4.40;;
75696;SDS011;64312;44.738;20.612;2023-04-03T13:28:05;7.18;;;4.60;;
75696;SDS011;64312;44.738;20.612;2023-04-03T13:30:33;6.20;;;3.88;;
75696;SDS011;64312;44.738;20.612;2023-04-03T13:33:03;6.00;;;3.38;;
75696;SDS011;64312;44.738;20.612;2023-04-03T13:35:36;5.47;;;3.50;;
75696;SDS011;64312;44.738;20.612;2023-04-03T13:40:50;6.63;;;3.67;;
75696;SDS011;64312;44.738;20.612;2023-04-03T13:43:20;7.00;;;4.00;;
75696;SDS011;64312;44.738;20.612;2023-04-03T13:48:26;5.05;;;3.55;;
75696;SDS011;64312;44.738;20.612;2023-04-03T13:53:26;5.90;;;3.50;;
75696;SDS011;64312;44.738;20.612;2023-04-03T13:58:26;6.28;;;3.45;;
75696;SDS011;64312;44.738;20.612;2023-04-03T14:06:13;3.83;;;2.55;;
75696;SDS011;64312;44.738;20.612;2023-04-03T14:08:42;4.57;;;2.92;;
75696;SDS011;64312;44.738;20.612;2023-04-03T14:11:13;4.75;;;2.83;;
75696;SDS011;64312;44.738;20.612;2023-04-03T14:13:42;4.10;;;2.67;;
75696;SDS011;64312;44.738;20.612;2023-04-03T14:16:11;3.90;;;2.25;;
75696;SDS011;64312;44.738;20.612;2023-04-03T14:18:40;5.15;;;3.08;;
75696;SDS011;64312;44.738;20.612;2023-04-03T14:21:05;7.65;;;3.65;;
75696;SDS011;64312;44.738;20.612;2023-04-03T14:23:31;5.30;;;3.20;;
75696;SDS011;64312;44.738;20.612;2023-04-03T14:25:58;5.07;;;2.97;;
75696;SDS011;64312;44.738;20.612;2023-04-03T14:28:25;4.43;;;2.67;;
75696;SDS011;64312;44.738;20.612;2023-04-03T14:30:51;4.82;;;3.35;;
75696;SDS011;64312;44.738;20.612;2023-04-03T14:33:19;5.65;;;3.55;;
75696;SDS011;64312;44.738;20.612;2023-04-03T14:35:46;5.40;;;2.75;;
75696;SDS011;64312;44.738;20.612;2023-04-03T14:38:27;5.70;;;2.90;;
75696;SDS011;64312;44.738;20.612;2023-04-03T14:40:56;6.32;;;2.97;;
75696;SDS011;64312;44.738;20.612;2023-04-03T14:43:22;4.90;;;3.15;;
75696;SDS011;64312;44.738;20.612;2023-04-03T14:45:48;6.18;;;3.22;;
75696;SDS011;64312;44.738;20.612;2023-04-03T14:48:22;5.30;;;3.35;;
75696;SDS011;64312;44.738;20.612;2023-04-03T14:50:50;4.43;;;2.13;;
75696;SDS011;64312;44.738;20.612;2023-04-03T14:53:17;4.28;;;2.80;;
75696;SDS011;64312;44.738;20.612;2023-04-03T14:55:45;4.25;;;2.55;;
75696;SDS011;64312;44.738;20.612;2023-04-03T14:58:15;5.30;;;3.10;;
75696;SDS011;64312;44.738;20.612;2023-04-03T15:00:43;4.38;;;2.08;;
75696;SDS011;64312;44.738;20.612;2023-04-03T15:03:12;3.53;;;1.63;;
75696;SDS011;64312;44.738;20.612;2023-04-03T15:05:41;5.55;;;2.92;;
75696;SDS011;64312;44.738;20.612;2023-04-03T15:08:17;3.80;;;1.95;;
75696;SDS011;64312;44.738;20.612;2023-04-03T15:10:46;6.72;;;2.33;;
75696;SDS011;64312;44.738;20.612;2023-04-03T15:13:12;4.25;;;2.17;;
75696;SDS011;64312;44.738;20.612;2023-04-03T15:15:38;3.15;;;2.00;;
75696;SDS011;64312;44.738;20.612;2023-04-03T15:18:04;3.80;;;2.33;;
75696;SDS011;64312;44.738;20.612;2023-04-03T15:20:31;4.75;;;2.25;;
75696;SDS011;64312;44.738;20.612;2023-04-03T15:22:58;8.48;;;2.53;;
75696;SDS011;64312;44.738;20.612;2023-04-03T15:25:29;5.85;;;2.83;;
75696;SDS011;64312;44.738;20.612;2023-04-03T15:27:55;6.05;;;3.17;;
75696;SDS011;64312;44.738;20.612;2023-04-03T15:30:22;6.20;;;2.85;;
75696;SDS011;64312;44.738;20.612;2023-04-03T15:32:48;8.80;;;2.88;;
75696;SDS011;64312;44.738;20.612;2023-04-03T15:35:15;5.00;;;3.03;;
75696;SDS011;64312;44.738;20.612;2023-04-03T15:37:40;7.18;;;3.10;;
75696;SDS011;64312;44.738;20.612;2023-04-03T15:40:07;5.50;;;2.30;;
75696;SDS011;64312;44.738;20.612;2023-04-03T15:42:33;7.68;;;3.25;;
75696;SDS011;64312;44.738;20.612;2023-04-03T15:44:59;5.70;;;2.97;;
75696;SDS011;64312;44.738;20.612;2023-04-03T15:47:25;6.57;;;2.70;;
75696;SDS011;64312;44.738;20.612;2023-04-03T15:49:52;5.28;;;3.28;;
75696;SDS011;64312;44.738;20.612;2023-04-03T15:52:19;6.13;;;3.17;;
75696;SDS011;64312;44.738;20.612;2023-04-03T15:54:45;9.57;;;3.67;;
75696;SDS011;64312;44.738;20.612;2023-04-03T15:57:11;5.25;;;2.85;;
75696;SDS011;64312;44.738;20.612;2023-04-03T15:59:36;4.32;;;2.63;;
75696;SDS011;64312;44.738;20.612;2023-04-03T16:02:02;5.93;;;3.80;;
75696;SDS011;64312;44.738;20.612;2023-04-03T16:04:31;6.05;;;3.45;;
75696;SDS011;64312;44.738;20.612;2023-04-03T16:07:00;6.70;;;3.58;;
75696;SDS011;64312;44.738;20.612;2023-04-03T16:09:27;4.60;;;2.80;;
75696;SDS011;64312;44.738;20.612;2023-04-03T16:11:52;4.78;;;2.80;;
75696;SDS011;64312;44.738;20.612;2023-04-03T16:14:18;4.20;;;2.97;;
75696;SDS011;64312;44.738;20.612;2023-04-03T16:16:44;5.35;;;2.95;;
75696;SDS011;64312;44.738;20.612;2023-04-03T16:19:10;10.30;;;3.22;;
75696;SDS011;64312;44.738;20.612;2023-04-03T16:21:35;5.25;;;3.20;;
75696;SDS011;64312;44.738;20.612;2023-04-03T16:24:02;9.88;;;3.38;;
75696;SDS011;64312;44.738;20.612;2023-04-03T16:26:27;8.52;;;3.20;;
75696;SDS011;64312;44.738;20.612;2023-04-03T16:28:53;5.50;;;3.28;;
75696;SDS011;64312;44.738;20.612;2023-04-03T16:31:19;7.07;;;3.53;;
75696;SDS011;64312;44.738;20.612;2023-04-03T16:33:46;12.13;;;5.28;;
75696;SDS011;64312;44.738;20.612;2023-04-03T16:36:12;9.07;;;3.42;;
75696;SDS011;64312;44.738;20.612;2023-04-03T16:38:38;9.52;;;3.65;;
75696;SDS011;64312;44.738;20.612;2023-04-03T16:41:03;7.65;;;3.38;;